createdAt,value
2018-11-21T00:00:48.554Z,54.37
2018-11-21T00:03:17.708Z,58.43
2018-11-21T00:05:46.968Z,55.80
2018-11-21T00:08:16.565Z,57.00
2018-11-21T00:10:45.884Z,54.83
2018-11-21T00:13:15.057Z,56.87
2018-11-21T00:15:44.255Z,55.47
2018-11-21T00:18:13.408Z,55.53
2018-11-21T00:20:42.604Z,56.70
2018-11-21T00:23:11.774Z,55.90
2018-11-21T00:25:40.961Z,56.33
2018-11-21T00:28:10.228Z,53.57
2018-11-21T00:30:39.504Z,56.27
2018-11-21T00:33:08.668Z,57.30
2018-11-21T00:35:37.923Z,57.73
2018-11-21T00:38:07.076Z,57.17
2018-11-21T00:40:36.271Z,57.63
2018-11-21T00:43:05.621Z,58.80
2018-11-21T00:45:34.816Z,55.93
2018-11-21T00:48:03.976Z,57.70
2018-11-21T00:50:33.167Z,56.97
2018-11-21T00:53:02.337Z,58.33
2018-11-21T00:55:31.596Z,56.17
2018-11-21T00:58:00.763Z,57.70
2018-11-21T01:00:30.338Z,55.40
2018-11-21T01:02:59.701Z,57.47
2018-11-21T01:05:28.880Z,58.47
2018-11-21T01:07:58.088Z,55.80
2018-11-21T01:10:27.274Z,56.33
2018-11-21T01:12:56.482Z,56.17
2018-11-21T01:15:25.681Z,58.33
2018-11-21T01:17:55.082Z,59.00
2018-11-21T01:20:24.474Z,56.67
2018-11-21T01:22:53.682Z,61.33
2018-11-21T01:25:22.985Z,58.40
2018-11-21T01:27:52.588Z,57.57
2018-11-21T01:30:21.736Z,59.70
2018-11-21T01:32:50.926Z,55.50
2018-11-21T01:35:20.072Z,56.43
2018-11-21T01:37:49.268Z,57.03
2018-11-21T01:40:18.470Z,57.87
2018-11-21T01:42:47.666Z,58.30
2018-11-21T01:45:16.967Z,55.43
2018-11-21T01:47:46.190Z,57.03
2018-11-21T01:50:15.350Z,59.53
2018-11-21T01:52:44.659Z,61.37
2018-11-21T01:55:13.819Z,56.73
2018-11-21T01:57:43.462Z,57.37
2018-11-21T02:00:13.169Z,61.10
2018-11-21T02:02:42.470Z,60.03
2018-11-21T02:05:11.652Z,58.67
2018-11-21T02:07:40.927Z,61.03
2018-11-21T02:10:10.088Z,63.13
2018-11-21T02:12:39.670Z,63.47
2018-11-21T02:15:08.882Z,63.43
2018-11-21T02:17:38.162Z,64.07
2018-11-21T02:20:08.484Z,61.83
2018-11-21T02:22:37.751Z,62.83
2018-11-21T02:25:07.816Z,59.70
2018-11-21T02:27:37.198Z,63.73
2018-11-21T02:30:07.792Z,62.00
2018-11-21T02:32:36.964Z,63.57
2018-11-21T02:35:07.465Z,64.73
2018-11-21T02:37:36.960Z,68.90
2018-11-21T02:40:06.872Z,65.13
2018-11-21T02:42:36.175Z,65.17
2018-11-21T02:45:06.003Z,69.60
2018-11-21T02:47:35.166Z,66.17
2018-11-21T02:50:04.364Z,68.17
2018-11-21T02:52:33.555Z,63.90
2018-11-21T02:55:02.875Z,62.67
2018-11-21T02:57:33.380Z,70.70
2018-11-21T03:00:06.080Z,68.87
2018-11-21T03:02:35.242Z,67.00
2018-11-21T03:05:04.574Z,67.90
2018-11-21T03:07:33.755Z,67.93
2018-11-21T03:10:03.001Z,63.47
2018-11-21T03:12:32.444Z,65.97
2018-11-21T03:15:01.644Z,63.50
2018-11-21T03:17:30.788Z,63.73
2018-11-21T03:19:59.975Z,61.60
2018-11-21T03:22:29.980Z,64.83
2018-11-21T03:24:59.206Z,60.93
2018-11-21T03:27:28.527Z,68.53
2018-11-21T03:29:57.789Z,64.67
2018-11-21T03:32:26.997Z,65.30
2018-11-21T03:34:56.526Z,63.67
2018-11-21T03:37:25.688Z,63.97
2018-11-21T03:39:54.967Z,61.17
2018-11-21T03:42:24.164Z,63.90
2018-11-21T03:44:53.385Z,66.83
2018-11-21T03:47:22.549Z,57.60
2018-11-21T03:49:51.755Z,57.93
2018-11-21T03:52:20.978Z,63.97
2018-11-21T03:54:50.252Z,60.20
2018-11-21T03:57:19.767Z,60.40
2018-11-21T03:59:48.924Z,58.07
2018-11-21T04:02:18.132Z,62.53
2018-11-21T04:04:47.304Z,60.30
2018-11-21T04:07:16.518Z,63.43
2018-11-21T04:09:45.845Z,64.57
2018-11-21T04:12:15.046Z,60.27
2018-11-21T04:14:44.203Z,60.73
2018-11-21T04:17:13.431Z,57.90
2018-11-21T04:19:43.047Z,58.73
2018-11-21T04:22:12.253Z,56.20
2018-11-21T04:24:41.484Z,62.47
2018-11-21T04:27:10.729Z,60.77
2018-11-21T04:29:40.035Z,60.50
2018-11-21T04:32:09.228Z,58.70
2018-11-21T04:34:38.412Z,57.03
2018-11-21T04:37:07.748Z,52.67
2018-11-21T04:39:36.905Z,59.17
2018-11-21T04:42:06.478Z,53.00
2018-11-21T04:44:35.722Z,54.53
2018-11-21T04:47:05.026Z,54.77
2018-11-21T04:49:34.323Z,54.10
2018-11-21T04:52:03.619Z,60.17
2018-11-21T04:54:33.145Z,52.47
2018-11-21T04:57:02.296Z,53.10
2018-11-21T04:59:31.516Z,59.37
2018-11-21T05:02:01.177Z,58.23
2018-11-21T05:04:30.516Z,57.10
2018-11-21T05:07:00.292Z,52.83
2018-11-21T05:09:29.491Z,56.57
2018-11-21T05:11:58.847Z,56.20
2018-11-21T05:14:28.028Z,51.80
2018-11-21T05:16:58.080Z,53.93
2018-11-21T05:19:26.389Z,53.40
2018-11-21T05:21:55.599Z,50.60
2018-11-21T05:24:24.779Z,53.97
2018-11-21T05:26:54.008Z,46.60
2018-11-21T05:29:23.208Z,48.07
2018-11-21T05:31:52.437Z,50.13
2018-11-21T05:34:21.715Z,49.73
2018-11-21T05:36:50.971Z,48.60
2018-11-21T05:39:20.170Z,50.67
2018-11-21T05:41:49.378Z,50.90
2018-11-21T05:44:18.543Z,51.27
2018-11-21T05:46:53.452Z,49.90
2018-11-21T05:49:16.980Z,48.03
2018-11-21T05:51:46.191Z,45.20
2018-11-21T05:54:15.384Z,47.30
2018-11-21T05:56:44.760Z,45.83
2018-11-21T05:59:13.986Z,45.60
2018-11-21T06:01:43.175Z,43.73
2018-11-21T06:04:12.338Z,45.80
2018-11-21T06:06:41.530Z,46.00
2018-11-21T06:09:12.215Z,45.67
2018-11-21T06:11:42.422Z,48.07
2018-11-21T06:14:11.720Z,49.50
2018-11-21T06:16:40.956Z,49.97
2018-11-21T06:19:10.219Z,52.33
2018-11-21T06:21:39.422Z,49.97
2018-11-21T06:24:08.575Z,51.30
2018-11-21T06:26:37.945Z,53.13
2018-11-21T06:29:07.107Z,50.27
2018-11-21T06:31:37.256Z,55.73
2018-11-21T06:34:06.441Z,54.20
2018-11-21T06:36:35.722Z,52.80
2018-11-21T06:39:06.561Z,57.70
2018-11-21T06:41:35.755Z,55.90
2018-11-21T06:44:04.906Z,56.90
2018-11-21T06:46:34.121Z,57.93
2018-11-21T06:49:03.348Z,57.37
2018-11-21T06:51:35.292Z,59.23
2018-11-21T06:54:02.563Z,55.20
2018-11-21T06:56:31.749Z,60.60
2018-11-21T06:59:00.989Z,60.17
2018-11-21T07:01:30.928Z,61.97
2018-11-21T07:04:00.193Z,60.80
2018-11-21T07:06:29.405Z,63.23
2018-11-21T07:08:58.613Z,58.23
2018-11-21T07:11:28.266Z,61.50
2018-11-21T07:13:57.449Z,60.73
2018-11-21T07:16:26.865Z,61.23
2018-11-21T07:18:56.411Z,59.00
2018-11-21T07:21:25.625Z,62.93
2018-11-21T07:23:54.964Z,61.43
2018-11-21T07:26:24.239Z,57.43
2018-11-21T07:28:53.391Z,62.90
2018-11-21T07:31:22.869Z,56.37
2018-11-21T07:33:52.053Z,59.13
2018-11-21T07:36:21.627Z,54.87
2018-11-21T07:38:51.170Z,59.87
2018-11-21T07:41:20.472Z,60.37
2018-11-21T07:43:49.769Z,54.67
2018-11-21T07:46:18.976Z,54.97
2018-11-21T07:48:48.176Z,55.13
2018-11-21T07:51:17.590Z,56.70
2018-11-21T07:53:46.831Z,58.73
2018-11-21T07:57:13.610Z,53.37
2018-11-21T08:00:20.262Z,57.47
2018-11-21T08:02:49.478Z,54.10
2018-11-21T08:05:29.459Z,57.17
2018-11-21T08:08:08.330Z,52.17
2018-11-21T08:10:56.597Z,56.70
2018-11-21T08:14:00.633Z,54.60
2018-11-21T08:16:57.966Z,51.87
2018-11-21T08:19:44.571Z,55.90
2018-11-21T08:22:38.939Z,56.30
2018-11-21T08:25:26.298Z,54.23
2018-11-21T08:28:17.595Z,53.00
2018-11-21T08:30:46.762Z,52.23
2018-11-21T08:33:15.982Z,54.67
2018-11-21T08:35:45.602Z,53.37
2018-11-21T08:38:15.205Z,56.10
2018-11-21T08:40:44.499Z,51.83
2018-11-21T08:43:13.719Z,53.30
2018-11-21T08:45:43.100Z,55.93
2018-11-21T08:48:12.941Z,54.27
2018-11-21T08:50:42.105Z,54.80
2018-11-21T08:53:11.344Z,57.13
2018-11-21T08:55:40.897Z,54.43
2018-11-21T08:58:10.328Z,51.37
2018-11-21T09:00:39.530Z,57.23
2018-11-21T09:03:08.837Z,53.63
2018-11-21T09:05:38.110Z,54.33
2018-11-21T09:08:08.151Z,54.47
2018-11-21T09:10:37.422Z,56.13
2018-11-21T09:13:06.681Z,53.50
2018-11-21T09:15:35.855Z,57.73
2018-11-21T09:18:05.334Z,54.17
2018-11-21T09:20:34.533Z,57.60
2018-11-21T09:23:03.813Z,56.63
2018-11-21T09:25:33.055Z,55.20
2018-11-21T09:28:02.374Z,55.17
2018-11-21T09:30:31.642Z,55.13
2018-11-21T09:33:01.420Z,56.33
2018-11-21T09:35:31.548Z,54.43
2018-11-21T09:38:00.734Z,54.00
2018-11-21T09:40:30.036Z,54.73
2018-11-21T09:42:59.224Z,57.70
2018-11-21T09:45:28.447Z,55.87
2018-11-21T09:47:57.788Z,59.37
2018-11-21T09:50:28.767Z,56.63
2018-11-21T09:52:57.943Z,55.23
2018-11-21T09:55:27.268Z,55.77
2018-11-21T09:57:56.879Z,59.77
2018-11-21T10:01:03.238Z,55.00
2018-11-21T10:03:34.005Z,57.73
2018-11-21T10:06:09.295Z,55.40
2018-11-21T10:08:46.089Z,61.90
2018-11-21T10:11:15.681Z,59.00
2018-11-21T10:13:45.013Z,63.20
2018-11-21T10:16:14.296Z,62.23
2018-11-21T10:18:45.249Z,62.43
2018-11-21T10:21:15.965Z,60.60
2018-11-21T10:23:45.333Z,65.17
2018-11-21T10:26:14.978Z,61.90
2018-11-21T10:28:44.733Z,61.10
2018-11-21T10:31:13.916Z,61.47
2018-11-21T10:33:43.282Z,58.63
2018-11-21T10:36:12.710Z,63.50
2018-11-21T10:38:42.117Z,65.03
2018-11-21T10:41:11.337Z,64.30
2018-11-21T10:43:40.684Z,64.07
2018-11-21T10:46:09.980Z,61.30
2018-11-21T10:48:39.173Z,61.00
2018-11-21T10:51:08.830Z,62.30
2018-11-21T10:53:38.287Z,66.17
2018-11-21T10:56:07.918Z,65.53
2018-11-21T10:58:37.500Z,66.47
2018-11-21T11:01:24.922Z,67.23
2018-11-21T11:04:06.720Z,68.27
2018-11-21T11:06:53.942Z,68.20
2018-11-21T11:09:41.672Z,66.40
2018-11-21T11:12:35.949Z,72.00
2018-11-21T11:15:36.448Z,71.13
2018-11-21T11:18:23.494Z,69.50
2018-11-21T11:21:18.106Z,69.27
2018-11-21T11:24:06.432Z,72.83
2018-11-21T11:27:09.932Z,69.43
2018-11-21T11:30:16.697Z,71.80
2018-11-21T11:33:10.891Z,68.10
2018-11-21T11:36:08.453Z,67.90
2018-11-21T11:38:55.878Z,71.47
2018-11-21T11:41:44.167Z,70.00
2018-11-21T11:44:31.237Z,73.37
2018-11-21T11:47:28.698Z,70.03
2018-11-21T11:50:08.283Z,72.00
2018-11-21T11:53:04.777Z,69.77
2018-11-21T11:55:52.100Z,70.40
2018-11-21T11:58:40.498Z,70.17
2018-11-21T12:01:40.971Z,70.23
2018-11-21T12:04:38.228Z,73.47
2018-11-21T12:07:25.424Z,66.73
2018-11-21T12:10:12.565Z,71.73
2018-11-21T12:13:00.087Z,69.13
2018-11-21T12:16:03.596Z,71.33
2018-11-21T12:19:00.686Z,74.77
2018-11-21T12:21:55.128Z,69.80
2018-11-21T12:24:42.245Z,70.33
2018-11-21T12:27:34.492Z,73.97
2018-11-21T12:30:17.122Z,74.20
2018-11-21T12:33:20.803Z,75.90
2018-11-21T12:36:07.511Z,78.83
2018-11-21T12:38:54.761Z,79.10
2018-11-21T12:41:46.254Z,79.47
2018-11-21T12:44:24.240Z,79.27
2018-11-21T12:47:11.364Z,77.37
2018-11-21T12:49:58.647Z,80.50
2018-11-21T12:52:46.882Z,78.13
2018-11-21T12:55:45.544Z,81.87
2018-11-21T12:58:33.042Z,76.73
2018-11-21T13:01:20.365Z,80.70
2018-11-21T13:03:55.915Z,81.50
2018-11-21T13:06:46.814Z,81.37
2018-11-21T13:09:34.238Z,76.97
2018-11-21T13:12:28.729Z,80.57
2018-11-21T13:15:29.364Z,74.90
2018-11-21T13:18:20.677Z,80.93
2018-11-21T13:21:05.977Z,87.63
2018-11-21T13:23:44.363Z,88.83
2018-11-21T13:26:44.794Z,86.83
2018-11-21T13:29:31.914Z,93.37
2018-11-21T13:32:19.587Z,92.33
2018-11-21T13:35:06.864Z,86.80
2018-11-21T13:37:54.181Z,94.37
2018-11-21T13:40:57.887Z,95.87
2018-11-21T13:43:45.110Z,94.60
2018-11-21T13:46:36.429Z,91.53
2018-11-21T13:49:39.921Z,119.73
2018-11-21T13:52:27.142Z,100.23
2018-11-21T13:54:57.818Z,93.90
2018-11-21T13:57:27.481Z,98.77
2018-11-21T13:59:56.983Z,126.17
2018-11-21T14:02:26.391Z,119.07
2018-11-21T14:04:56.196Z,98.80
2018-11-21T14:07:25.456Z,102.93
2018-11-21T14:09:54.694Z,112.60
2018-11-21T14:12:24.312Z,100.93
2018-11-21T14:14:53.500Z,111.13
2018-11-21T14:17:27.508Z,113.43
2018-11-21T14:19:52.406Z,108.10
2018-11-21T14:22:22.159Z,117.17
2018-11-21T14:24:51.581Z,106.73
2018-11-21T14:27:20.811Z,122.50
2018-11-21T14:29:50.177Z,106.10
2018-11-21T14:32:20.379Z,113.47
2018-11-21T14:34:49.550Z,105.93
2018-11-21T14:37:19.135Z,103.17
2018-11-21T14:39:48.328Z,105.73
2018-11-21T14:42:17.557Z,106.77
2018-11-21T14:44:47.036Z,99.77
2018-11-21T14:47:17.117Z,92.87
2018-11-21T14:49:49.931Z,98.37
2018-11-21T14:52:19.271Z,92.47
2018-11-21T14:54:48.467Z,86.87
2018-11-21T14:57:18.037Z,85.03
2018-11-21T14:59:47.641Z,76.43
2018-11-21T15:02:17.118Z,72.63
2018-11-21T15:04:46.342Z,69.10
2018-11-21T15:07:15.705Z,69.97
2018-11-21T15:09:44.945Z,68.67
2018-11-21T15:12:14.240Z,67.53
2018-11-21T15:14:43.743Z,66.60
2018-11-21T15:17:12.939Z,62.10
2018-11-21T15:19:42.150Z,67.17
2018-11-21T15:22:11.375Z,56.43
2018-11-21T15:24:40.943Z,63.90
2018-11-21T15:27:10.442Z,62.43
2018-11-21T15:29:39.760Z,65.27
2018-11-21T15:32:09.011Z,69.60
2018-11-21T15:34:38.636Z,68.50
2018-11-21T15:37:10.710Z,73.57
2018-11-21T15:39:40.200Z,68.73
2018-11-21T15:42:10.232Z,77.97
2018-11-21T15:44:39.536Z,83.73
2018-11-21T15:47:08.874Z,74.13
2018-11-21T15:49:38.333Z,75.33
2018-11-21T15:52:07.536Z,68.63
2018-11-21T15:54:36.931Z,67.80
2018-11-21T15:57:06.294Z,61.50
2018-11-21T15:59:35.528Z,63.33
2018-11-21T16:02:04.788Z,60.30
2018-11-21T16:04:34.129Z,54.23
2018-11-21T16:07:03.346Z,53.37
2018-11-21T16:09:32.839Z,55.40
2018-11-21T16:12:02.309Z,52.10
2018-11-21T16:14:31.995Z,52.80
2018-11-21T16:17:01.651Z,53.20
2018-11-21T16:19:31.326Z,53.93
2018-11-21T16:22:01.047Z,53.77
2018-11-21T16:24:31.240Z,51.47
2018-11-21T16:27:01.045Z,47.13
2018-11-21T16:29:36.548Z,46.60
2018-11-21T16:32:00.293Z,49.10
2018-11-21T16:34:29.970Z,49.40
2018-11-21T16:36:59.643Z,48.33
2018-11-21T16:39:29.413Z,49.23
2018-11-21T16:41:59.136Z,49.07
2018-11-21T16:44:28.802Z,53.10
2018-11-21T16:46:58.442Z,50.57
2018-11-21T16:49:28.531Z,51.30
2018-11-21T16:51:58.304Z,52.30
2018-11-21T16:54:27.946Z,48.87
2018-11-21T16:56:57.622Z,49.00
2018-11-21T16:59:27.298Z,49.63
2018-11-21T17:01:56.972Z,49.33
2018-11-21T17:04:26.610Z,44.53
2018-11-21T17:06:56.424Z,48.17
2018-11-21T17:09:27.651Z,48.77
2018-11-21T17:11:57.886Z,47.87
2018-11-21T17:14:27.569Z,49.43
2018-11-21T17:16:57.302Z,54.17
2018-11-21T17:19:26.990Z,54.73
2018-11-21T17:21:56.600Z,54.87
2018-11-21T17:24:26.300Z,63.07
2018-11-21T17:26:56.255Z,58.30
2018-11-21T17:29:25.921Z,64.30
2018-11-21T17:31:55.661Z,66.13
2018-11-21T17:34:25.747Z,64.77
2018-11-21T17:36:55.789Z,67.00
2018-11-21T17:39:25.382Z,63.27
2018-11-21T17:41:55.181Z,65.03
2018-11-21T17:44:28.896Z,65.17
2018-11-21T17:46:58.654Z,66.57
2018-11-21T17:49:28.300Z,66.77
2018-11-21T17:51:58.141Z,62.70
2018-11-21T17:54:27.829Z,66.37
2018-11-21T17:56:57.668Z,65.47
2018-11-21T17:59:27.851Z,60.37
2018-11-21T18:01:57.491Z,60.80
2018-11-21T18:04:27.384Z,60.60
2018-11-21T18:06:57.474Z,61.70
2018-11-21T18:09:28.102Z,64.80
2018-11-21T18:11:57.930Z,61.40
2018-11-21T18:14:27.605Z,69.20
2018-11-21T18:16:57.279Z,59.60
2018-11-21T18:19:27.471Z,59.07
2018-11-21T18:21:57.219Z,61.20
2018-11-21T18:24:26.883Z,56.77
2018-11-21T18:26:56.751Z,60.30
2018-11-21T18:29:26.457Z,54.83
2018-11-21T18:31:56.247Z,54.57
2018-11-21T18:34:25.926Z,53.70
2018-11-21T18:36:55.563Z,52.37
2018-11-21T18:39:25.302Z,48.67
2018-11-21T18:41:57.960Z,55.40
2018-11-21T18:44:24.746Z,56.30
2018-11-21T18:46:54.370Z,58.20
2018-11-21T18:49:24.012Z,61.10
2018-11-21T18:51:53.747Z,64.10
2018-11-21T18:54:23.428Z,64.33
2018-11-21T18:57:36.848Z,71.87
2018-11-21T19:00:11.412Z,70.10
2018-11-21T19:02:41.221Z,71.30
